Weather History for Franklin, PA

Change the Weather History Date:

Saturday, February 9, 2013

  Actual Average Record
Temperature  
Mean Temperature 20 °F -  
Max Temperature 26 °F 32 °F 65 °F (1937)
Min Temperature 12 °F 12 °F -21 °F (1934)
Degree Days  
Heating Degree Days 45    
Moisture  
Dew Point 11 °F    
Average Humidity 70    
Maximum Humidity 92    
Minimum Humidity 47    
Precipitation  
Precipitation 0.00 in - - ()
Sea Level Pressure  
Sea Level Pressure 30.27 in    
Wind  
Wind Speed 7 mph (NW)    
Max Wind Speed 13 mph    
Max Gust Speed 23 mph    
Visibility 9 miles    
Events      
Averages and records for this station are not official NWS values.
T = Trace of Precipitation, MM = Missing Value Source: NWS Daily Summary

Daily Weather History Graph

Daily Weather History Graph

Search for Another Location

Airport:

Trip Planner

Search our weather history database for the weather conditions in past years. The results will help you decide how hot, cold, wet, or windy it might be!

Date:

Astronomy

Feb. 09, 2013 Rise Set
Actual Time 7:21 AM EST 5:46 PM EST
Civil Twilight 6:53 AM EST 6:14 PM EST
Nautical Twilight 6:20 AM EST 6:47 PM EST
Astronomical Twilight 5:48 AM EST 7:19 PM EST
Moon 6:32 AM EST (2/9) 5:27 PM EST (2/9)
Length of Visible Light 11h 21m
Length of Day
10h 24m
Waning Crescent, 0% of the Moon is Illuminated
Feb 9
Waning Crescent
Feb 10
New
Feb 17
First Quarter
Feb 25
Full
Mar 4
Last Quarter

Hourly Weather History & Observations

Time (EST) Temp. Windchill Dew Point Humidity Pressure Visibility Wind Dir Wind Speed Gust Speed Precip Events Conditions
12:15 AM 17.6 °F 5.0 °F 12.2 °F 79% 30.10 in 7.0 mi WNW 11.5 mph 21.9 mph N/A   Overcast
12:35 AM 17.6 °F 6.4 °F 12.2 °F 79% 30.11 in 5.0 mi NW 9.2 mph 21.9 mph N/A   Overcast
12:55 AM 17.6 °F 5.0 °F 12.2 °F 79% 30.12 in 7.0 mi NW 11.5 mph 18.4 mph N/A   Overcast
1:15 AM 17.6 °F 7.3 °F 12.2 °F 79% 30.13 in 10.0 mi NW 8.1 mph 18.4 mph N/A   Overcast
1:35 AM 17.6 °F 5.0 °F 10.4 °F 73% 30.14 in 9.0 mi WNW 11.5 mph 23.0 mph N/A   Overcast
1:55 AM 17.6 °F 5.0 °F 10.4 °F 73% 30.14 in 10.0 mi WNW 11.5 mph 17.3 mph N/A   Overcast
2:15 AM 17.6 °F 7.3 °F 10.4 °F 73% 30.15 in 10.0 mi NW 8.1 mph - N/A   Overcast
2:35 AM 17.6 °F 5.7 °F 10.4 °F 73% 30.16 in 10.0 mi NW 10.4 mph 18.4 mph N/A   Overcast
2:55 AM 17.6 °F 9.3 °F 12.2 °F 79% 30.16 in 10.0 mi NNW 5.8 mph - N/A   Overcast
3:15 AM 15.8 °F 5.1 °F 12.2 °F 86% 30.17 in 10.0 mi NW 8.1 mph - N/A   Overcast
3:35 AM 15.8 °F 6.1 °F 12.2 °F 86% 30.18 in 10.0 mi NW 6.9 mph - N/A   Overcast
3:55 AM 15.8 °F 5.1 °F 10.4 °F 79% 30.19 in 10.0 mi NW 8.1 mph - N/A   Overcast
4:15 AM 15.8 °F 8.6 °F 12.2 °F 86% 30.19 in 10.0 mi NW 4.6 mph - N/A   Overcast
4:35 AM 17.6 °F 9.3 °F 12.2 °F 79% 30.19 in 10.0 mi NW 5.8 mph - N/A   Overcast
4:55 AM 17.6 °F 6.4 °F 10.4 °F 73% 30.20 in 10.0 mi NW 9.2 mph 18.4 mph N/A   Overcast
5:15 AM 17.6 °F 6.4 °F 10.4 °F 73% 30.20 in 10.0 mi NW 9.2 mph 17.3 mph N/A   Overcast
5:35 AM 17.6 °F 4.3 °F 12.2 °F 79% 30.21 in 10.0 mi NNW 12.7 mph 18.4 mph N/A   Overcast
5:55 AM 15.8 °F 4.2 °F 10.4 °F 79% 30.23 in 10.0 mi NW 9.2 mph 17.3 mph N/A   Overcast
6:15 AM 15.8 °F 6.1 °F 10.4 °F 79% 30.24 in 6.0 mi WNW 6.9 mph - N/A   Overcast
6:35 AM 15.8 °F 6.1 °F 12.2 °F 86% 30.26 in 6.0 mi WNW 6.9 mph - N/A   Overcast
6:55 AM 17.6 °F 6.4 °F 12.2 °F 79% 30.26 in 5.0 mi NNW 9.2 mph - N/A   Overcast
7:15 AM 17.6 °F 8.2 °F 12.2 °F 79% 30.27 in 8.0 mi NW 6.9 mph - N/A   Overcast
7:35 AM 17.6 °F 10.7 °F 12.2 °F 79% 30.28 in 6.0 mi NW 4.6 mph - N/A   Overcast
7:55 AM 17.6 °F 9.3 °F 12.2 °F 79% 30.29 in 5.0 mi NW 5.8 mph - N/A   Overcast
8:15 AM 17.6 °F 9.3 °F 12.2 °F 79% 30.29 in 3.0 mi WNW 5.8 mph - N/A   Overcast
8:35 AM 17.6 °F 8.2 °F 12.2 °F 79% 30.30 in 2.5 mi WNW 6.9 mph - N/A   Overcast
8:55 AM 17.6 °F 8.2 °F 12.2 °F 79% 30.30 in 3.0 mi NNW 6.9 mph - N/A   Overcast
9:15 AM 17.6 °F 9.3 °F 12.2 °F 79% 30.31 in 3.0 mi NW 5.8 mph - N/A   Overcast
9:35 AM 17.6 °F 6.4 °F 12.2 °F 79% 30.32 in 3.0 mi WNW 9.2 mph - N/A   Overcast
9:55 AM 17.6 °F 8.2 °F 12.2 °F 79% 30.32 in 3.0 mi WNW 6.9 mph - N/A   Overcast
10:15 AM 17.6 °F 6.4 °F 10.4 °F 73% 30.32 in 7.0 mi WNW 9.2 mph - N/A   Overcast
10:35 AM 19.4 °F 9.5 °F 12.2 °F 74% 30.33 in 10.0 mi West 8.1 mph - N/A   Overcast
10:55 AM 19.4 °F 10.4 °F 12.2 °F 74% 30.33 in 10.0 mi NW 6.9 mph - N/A   Overcast
11:15 AM 19.4 °F 9.5 °F 12.2 °F 74% 30.33 in 10.0 mi West 8.1 mph - N/A   Overcast
11:35 AM 21.2 °F 12.6 °F 12.2 °F 68% 30.33 in 10.0 mi NW 6.9 mph - N/A   Mostly Cloudy
11:55 AM 21.2 °F 16.4 °F 14.0 °F 74% 30.33 in 10.0 mi NNW 3.5 mph - N/A   Mostly Cloudy
12:15 PM 21.2 °F 13.6 °F 14.0 °F 74% 30.33 in 10.0 mi WNW 5.8 mph - N/A   Mostly Cloudy
12:35 PM 23.0 °F 18.4 °F 14.0 °F 68% 30.32 in 10.0 mi NNW 3.5 mph - N/A   Scattered Clouds
12:55 PM 23.0 °F 17.0 °F 12.2 °F 63% 30.32 in 10.0 mi NNW 4.6 mph - N/A   Partly Cloudy
1:15 PM 24.8 °F - 14.0 °F 64% 30.31 in 10.0 mi Calm Calm - N/A   Clear
1:35 PM 24.8 °F 16.9 °F 12.2 °F 59% 30.31 in 10.0 mi NW 6.9 mph - N/A   Clear
1:55 PM 24.8 °F 16.9 °F 12.2 °F 59% 30.31 in 10.0 mi NW 6.9 mph - N/A   Clear
2:15 PM 26.6 °F 19.1 °F 14.0 °F 59% 30.30 in 10.0 mi WNW 6.9 mph - N/A   Clear
2:35 PM 26.6 °F 20.0 °F 12.2 °F 55% 30.31 in 10.0 mi NNW 5.8 mph - N/A   Clear
2:55 PM 26.6 °F 20.0 °F 12.2 °F 55% 30.31 in 10.0 mi WNW 5.8 mph - N/A   Clear
3:15 PM 26.6 °F 20.0 °F 10.4 °F 51% 30.31 in 10.0 mi NW 5.8 mph - N/A   Clear
3:35 PM 26.6 °F 21.2 °F 10.4 °F 51% 30.31 in 10.0 mi NNW 4.6 mph - N/A   Clear
3:55 PM 26.6 °F 21.2 °F 10.4 °F 51% 30.31 in 10.0 mi NW 4.6 mph - N/A   Clear
4:15 PM 26.6 °F 20.0 °F 10.4 °F 51% 30.31 in 10.0 mi NW 5.8 mph - N/A   Clear
4:35 PM 26.6 °F 20.0 °F 10.4 °F 51% 30.30 in 10.0 mi NNW 5.8 mph - N/A   Clear
4:55 PM 26.6 °F - 10.4 °F 51% 30.31 in 10.0 mi Calm Calm - N/A   Clear
5:15 PM 26.6 °F - 8.6 °F 47% 30.32 in 10.0 mi Calm Calm - N/A   Clear
5:35 PM 24.8 °F - 8.6 °F 50% 30.32 in 10.0 mi Calm Calm - N/A   Clear
5:55 PM 24.8 °F - 8.6 °F 50% 30.31 in 10.0 mi Calm Calm - N/A   Clear
6:15 PM 24.8 °F - 8.6 °F 50% 30.31 in 10.0 mi Calm Calm - N/A   Clear
6:35 PM 24.8 °F - 8.6 °F 50% 30.31 in 10.0 mi Calm Calm - N/A   Clear
6:55 PM 21.2 °F - 8.6 °F 58% 30.32 in 10.0 mi Calm Calm - N/A   Clear
7:15 PM 21.2 °F - 10.4 °F 63% 30.32 in 10.0 mi Calm Calm - N/A   Clear
7:35 PM 21.2 °F - 10.4 °F 63% 30.32 in 10.0 mi Calm Calm - N/A   Clear
7:55 PM 21.2 °F - 10.4 °F 63% 30.32 in 10.0 mi Calm Calm - N/A   Clear
8:35 PM 19.4 °F - 8.6 °F 63% 30.33 in 10.0 mi Calm Calm - N/A   Clear
8:55 PM 19.4 °F - 10.4 °F 68% 30.32 in 10.0 mi Calm Calm - N/A   Clear
9:15 PM 19.4 °F - 10.4 °F 68% 30.33 in 10.0 mi Calm Calm - N/A   Clear
9:35 PM 17.6 °F - 10.4 °F 73% 30.33 in 10.0 mi Calm Calm - N/A   Clear
9:55 PM 19.4 °F - 10.4 °F 68% 30.33 in 10.0 mi Calm Calm - N/A   Clear
10:15 PM 19.4 °F - 10.4 °F 68% 30.32 in 10.0 mi Calm Calm - N/A   Clear
10:35 PM 17.6 °F 12.3 °F 10.4 °F 73% 30.32 in 10.0 mi SE 3.5 mph - N/A   Clear
10:55 PM 15.8 °F 10.2 °F 8.6 °F 73% 30.32 in 10.0 mi SE 3.5 mph - N/A   Clear
11:15 PM 15.8 °F 8.6 °F 8.6 °F 73% 30.31 in 10.0 mi ESE 4.6 mph - N/A   Clear
11:35 PM 14.0 °F - 8.6 °F 79% 30.30 in 10.0 mi Calm Calm - N/A   Clear
11:55 PM 12.2 °F 2.9 °F 10.4 °F 92% 30.29 in 10.0 mi East 5.8 mph - N/A   Clear